aviador You're here:

KPNS Decoded Metar

PENSACOLA in FL, USA
Report Time2017-03-23 03:53:00
UTC Time2017-03-23 04:18:15
Flight Rules vfr VFR
Wind010° at 05 kt
W.Decomp.*RWY 35: 4.6 kt HW 1.9 kt RCW
RWY 08: 1.9 kt HW 4.6 kt LCW
W.Rank010° ranks 4
Current wind is below 010° avg. (6.1)
Visibility9999 m
Phenomena:N/A
Clouds:N/A
Expected CloudBase > 4,000 ft AGL from Temp-Dew spread
CeilingNone
Temp23°C (ISA +8)
Dew Point13°C (53% RH)
AAT22.1°C
QNH1021 hPa
Density Alt1,017 ft
Elevation125 ft
Report Wrong Elevation
Raw Report
KPNS 230353Z AUTO 01005KT 10SM CLR 23/13 A3016=

Extra information for KPNS:More info

Metar Taf Metar & Taf Last 4 Metars F.Rules Stats Wind Profile Meteogram Temp Stats Airport Information Weather charts Add Link Nearby VenuesMetar ALERT Operation Metar Decoded Social comments

AIRNAV info for KPNS